KBAM/BAM METAR and TAF weather

Enter ICAO airport designator
Station Type Date Time Source
KBAM METAR 2020/06/02 17:55 UTC NOAA

KBAM 021755Z AUTO 03003KT 10SM CLR 25/06 A3020 RMK AO1


Station Type Date Time Source
KBAM Decoded METAR 2020/06/02 17:55 UTC NOAA

Station name not available
Jun 02, 2020 - 01:55 PM EDT / 2020.06.02 1755 UTC
Wind: from the NNE (030 degrees) at 3 MPH (3 KT):0
Visibility: 10 mile(s):0
Sky conditions: clear
Temperature: 77 F (25 C)
Dew Point: 42 F (6 C)
Relative Humidity: 29%
Pressure (altimeter): 30.2 in. Hg (1022 hPa)
ob: KBAM 021755Z AUTO 03003KT 10SM CLR 25/06 A3020 RMK AO1
cycle: 18

Station Type Date Time Source
KBAM TAF 2020/06/02 18:42 UTC NOAA

TAF KBAM 021740Z 0218/0318 35006KT P6SM FEW120 SCT250
FM022100 32009KT P6SM BKN250
FM030300 VRB05KT P6SM SCT250

Example: see airport list